sensor_id;sensor_type;location;lat;lon;timestamp;temperature;humidity
39519;DHT22;25200;53.394;10.414;2024-02-15T00:00:41;11.40;99.90
39519;DHT22;25200;53.394;10.414;2024-02-15T00:03:10;11.40;99.90
39519;DHT22;25200;53.394;10.414;2024-02-15T00:05:39;11.40;99.90
39519;DHT22;25200;53.394;10.414;2024-02-15T00:08:04;11.40;99.80
39519;DHT22;25200;53.394;10.414;2024-02-15T00:10:31;11.40;99.80
39519;DHT22;25200;53.394;10.414;2024-02-15T00:12:58;11.40;99.80
39519;DHT22;25200;53.394;10.414;2024-02-15T00:15:23;11.40;99.80
39519;DHT22;25200;53.394;10.414;2024-02-15T00:17:49;11.40;99.80
39519;DHT22;25200;53.394;10.414;2024-02-15T00:20:15;11.40;99.70
39519;DHT22;25200;53.394;10.414;2024-02-15T00:22:43;11.50;99.80
39519;DHT22;25200;53.394;10.414;2024-02-15T00:25:08;11.40;99.80
39519;DHT22;25200;53.394;10.414;2024-02-15T00:27:35;11.40;99.80
39519;DHT22;25200;53.394;10.414;2024-02-15T00:30:02;11.50;99.80
39519;DHT22;25200;53.394;10.414;2024-02-15T00:32:27;11.50;99.80
39519;DHT22;25200;53.394;10.414;2024-02-15T00:34:53;11.50;99.80
39519;DHT22;25200;53.394;10.414;2024-02-15T00:37:20;11.50;99.80
39519;DHT22;25200;53.394;10.414;2024-02-15T00:39:46;11.50;99.80
39519;DHT22;25200;53.394;10.414;2024-02-15T00:42:11;11.50;99.80
39519;DHT22;25200;53.394;10.414;2024-02-15T00:44:37;11.50;99.80
39519;DHT22;25200;53.394;10.414;2024-02-15T00:47:03;11.50;99.80
39519;DHT22;25200;53.394;10.414;2024-02-15T00:49:28;11.50;99.90
39519;DHT22;25200;53.394;10.414;2024-02-15T00:51:54;11.50;99.90
39519;DHT22;25200;53.394;10.414;2024-02-15T00:54:20;11.50;99.90
39519;DHT22;25200;53.394;10.414;2024-02-15T00:56:45;11.50;99.90
39519;DHT22;25200;53.394;10.414;2024-02-15T00:59:11;11.50;99.90
39519;DHT22;25200;53.394;10.414;2024-02-15T01:01:37;11.60;99.90
39519;DHT22;25200;53.394;10.414;2024-02-15T01:04:04;11.60;99.90
39519;DHT22;25200;53.394;10.414;2024-02-15T01:06:30;11.60;99.90
39519;DHT22;25200;53.394;10.414;2024-02-15T01:08:56;11.60;99.90
39519;DHT22;25200;53.394;10.414;2024-02-15T01:11:22;11.60;99.90
39519;DHT22;25200;53.394;10.414;2024-02-15T01:13:49;11.60;99.90
39519;DHT22;25200;53.394;10.414;2024-02-15T01:16:16;11.60;99.80
39519;DHT22;25200;53.394;10.414;2024-02-15T01:18:42;11.60;99.80
39519;DHT22;25200;53.394;10.414;2024-02-15T01:21:07;11.60;99.90
39519;DHT22;25200;53.394;10.414;2024-02-15T01:23:34;11.60;99.90
39519;DHT22;25200;53.394;10.414;2024-02-15T01:26:02;11.60;99.90
39519;DHT22;25200;53.394;10.414;2024-02-15T01:28:28;11.60;99.90
39519;DHT22;25200;53.394;10.414;2024-02-15T01:30:53;11.60;99.90
39519;DHT22;25200;53.394;10.414;2024-02-15T01:33:20;11.60;99.90
39519;DHT22;25200;53.394;10.414;2024-02-15T01:35:45;11.60;99.80
39519;DHT22;25200;53.394;10.414;2024-02-15T01:38:11;11.60;99.80
39519;DHT22;25200;53.394;10.414;2024-02-15T01:40:37;11.60;99.90
39519;DHT22;25200;53.394;10.414;2024-02-15T01:43:03;11.60;99.90
39519;DHT22;25200;53.394;10.414;2024-02-15T01:45:29;11.60;99.90
39519;DHT22;25200;53.394;10.414;2024-02-15T01:47:55;11.60;99.90
39519;DHT22;25200;53.394;10.414;2024-02-15T01:50:22;11.60;99.90
39519;DHT22;25200;53.394;10.414;2024-02-15T01:52:49;11.70;99.90
39519;DHT22;25200;53.394;10.414;2024-02-15T01:55:17;11.70;99.90
39519;DHT22;25200;53.394;10.414;2024-02-15T01:57:47;11.70;99.90
39519;DHT22;25200;53.394;10.414;2024-02-15T02:00:17;11.70;99.90
39519;DHT22;25200;53.394;10.414;2024-02-15T02:02:44;11.70;99.90
39519;DHT22;25200;53.394;10.414;2024-02-15T02:05:10;11.70;99.80
39519;DHT22;25200;53.394;10.414;2024-02-15T02:07:37;11.70;99.80
39519;DHT22;25200;53.394;10.414;2024-02-15T02:10:03;11.70;99.90
39519;DHT22;25200;53.394;10.414;2024-02-15T02:12:29;11.70;99.90
39519;DHT22;25200;53.394;10.414;2024-02-15T02:14:55;11.70;99.90
39519;DHT22;25200;53.394;10.414;2024-02-15T02:17:21;11.70;99.90
39519;DHT22;25200;53.394;10.414;2024-02-15T02:19:46;11.70;99.90
39519;DHT22;25200;53.394;10.414;2024-02-15T02:22:13;11.70;99.90
39519;DHT22;25200;53.394;10.414;2024-02-15T02:25:03;11.80;99.90
39519;DHT22;25200;53.394;10.414;2024-02-15T02:27:32;11.80;99.90
39519;DHT22;25200;53.394;10.414;2024-02-15T02:29:58;11.80;99.90
39519;DHT22;25200;53.394;10.414;2024-02-15T02:32:25;11.80;99.90
39519;DHT22;25200;53.394;10.414;2024-02-15T02:34:51;11.80;99.90
39519;DHT22;25200;53.394;10.414;2024-02-15T02:37:25;11.80;99.90
39519;DHT22;25200;53.394;10.414;2024-02-15T02:39:50;11.80;99.90
39519;DHT22;25200;53.394;10.414;2024-02-15T02:42:16;11.80;99.90
39519;DHT22;25200;53.394;10.414;2024-02-15T02:44:42;11.90;99.90
39519;DHT22;25200;53.394;10.414;2024-02-15T02:47:07;11.90;99.90
39519;DHT22;25200;53.394;10.414;2024-02-15T02:49:35;11.90;99.90
39519;DHT22;25200;53.394;10.414;2024-02-15T02:52:01;11.90;99.90
39519;DHT22;25200;53.394;10.414;2024-02-15T02:54:27;11.90;99.90
39519;DHT22;25200;53.394;10.414;2024-02-15T02:56:54;11.90;99.90
39519;DHT22;25200;53.394;10.414;2024-02-15T02:59:20;11.90;99.90
39519;DHT22;25200;53.394;10.414;2024-02-15T03:01:45;11.90;99.90
39519;DHT22;25200;53.394;10.414;2024-02-15T03:04:11;11.90;99.90
39519;DHT22;25200;53.394;10.414;2024-02-15T03:06:37;11.90;99.90
39519;DHT22;25200;53.394;10.414;2024-02-15T03:09:03;11.90;99.90
39519;DHT22;25200;53.394;10.414;2024-02-15T03:11:32;11.90;99.90
39519;DHT22;25200;53.394;10.414;2024-02-15T03:13:59;11.90;99.90
39519;DHT22;25200;53.394;10.414;2024-02-15T03:16:25;11.90;99.90
39519;DHT22;25200;53.394;10.414;2024-02-15T03:18:51;11.90;99.90
39519;DHT22;25200;53.394;10.414;2024-02-15T03:21:18;12.00;99.90
39519;DHT22;25200;53.394;10.414;2024-02-15T03:23:44;12.00;99.90
39519;DHT22;25200;53.394;10.414;2024-02-15T03:26:09;12.00;99.90
39519;DHT22;25200;53.394;10.414;2024-02-15T03:28:36;12.00;99.90
39519;DHT22;25200;53.394;10.414;2024-02-15T03:31:03;12.00;99.90
39519;DHT22;25200;53.394;10.414;2024-02-15T03:33:28;12.00;99.90
39519;DHT22;25200;53.394;10.414;2024-02-15T03:36:02;12.00;99.90
39519;DHT22;25200;53.394;10.414;2024-02-15T03:38:27;12.00;99.90
39519;DHT22;25200;53.394;10.414;2024-02-15T03:40:55;12.00;99.90
39519;DHT22;25200;53.394;10.414;2024-02-15T03:43:21;12.00;99.90
39519;DHT22;25200;53.394;10.414;2024-02-15T03:45:49;12.00;99.90
39519;DHT22;25200;53.394;10.414;2024-02-15T03:48:14;12.00;99.90
39519;DHT22;25200;53.394;10.414;2024-02-15T03:50:41;12.00;99.90
39519;DHT22;25200;53.394;10.414;2024-02-15T03:53:09;12.00;99.90
39519;DHT22;25200;53.394;10.414;2024-02-15T03:55:36;12.00;99.90
39519;DHT22;25200;53.394;10.414;2024-02-15T03:58:02;12.00;99.90
39519;DHT22;25200;53.394;10.414;2024-02-15T04:00:27;12.00;99.90
39519;DHT22;25200;53.394;10.414;2024-02-15T04:02:53;12.00;99.90
39519;DHT22;25200;53.394;10.414;2024-02-15T04:05:18;12.00;99.90
39519;DHT22;25200;53.394;10.414;2024-02-15T04:07:47;12.00;99.90
39519;DHT22;25200;53.394;10.414;2024-02-15T04:10:13;12.00;99.90
39519;DHT22;25200;53.394;10.414;2024-02-15T04:12:39;12.00;99.90
39519;DHT22;25200;53.394;10.414;2024-02-15T04:15:07;12.00;99.90
39519;DHT22;25200;53.394;10.414;2024-02-15T04:17:37;12.00;99.90
39519;DHT22;25200;53.394;10.414;2024-02-15T04:20:04;12.00;99.90
39519;DHT22;25200;53.394;10.414;2024-02-15T04:22:34;12.00;99.90
39519;DHT22;25200;53.394;10.414;2024-02-15T04:25:06;12.00;99.90
39519;DHT22;25200;53.394;10.414;2024-02-15T04:27:35;12.00;99.90
39519;DHT22;25200;53.394;10.414;2024-02-15T04:30:01;12.00;99.90
39519;DHT22;25200;53.394;10.414;2024-02-15T04:32:27;12.00;99.90
39519;DHT22;25200;53.394;10.414;2024-02-15T04:34:54;12.00;99.90
39519;DHT22;25200;53.394;10.414;2024-02-15T04:37:20;12.00;99.90
39519;DHT22;25200;53.394;10.414;2024-02-15T04:39:46;12.00;99.90
39519;DHT22;25200;53.394;10.414;2024-02-15T04:42:13;12.10;99.90
39519;DHT22;25200;53.394;10.414;2024-02-15T04:44:39;12.00;99.90
39519;DHT22;25200;53.394;10.414;2024-02-15T04:47:05;12.10;99.90
39519;DHT22;25200;53.394;10.414;2024-02-15T04:49:31;12.10;99.90
39519;DHT22;25200;53.394;10.414;2024-02-15T04:51:57;12.10;99.90
39519;DHT22;25200;53.394;10.414;2024-02-15T04:54:29;12.10;99.90
39519;DHT22;25200;53.394;10.414;2024-02-15T04:56:55;12.10;99.90
39519;DHT22;25200;53.394;10.414;2024-02-15T04:59:22;12.10;99.90
39519;DHT22;25200;53.394;10.414;2024-02-15T05:01:54;12.10;99.90
39519;DHT22;25200;53.394;10.414;2024-02-15T05:04:19;12.10;99.90
39519;DHT22;25200;53.394;10.414;2024-02-15T05:06:45;12.10;99.90
39519;DHT22;25200;53.394;10.414;2024-02-15T05:09:11;12.10;99.90
39519;DHT22;25200;53.394;10.414;2024-02-15T05:11:37;12.10;99.90
39519;DHT22;25200;53.394;10.414;2024-02-15T05:14:07;12.10;99.90
39519;DHT22;25200;53.394;10.414;2024-02-15T05:16:33;12.10;99.90
39519;DHT22;25200;53.394;10.414;2024-02-15T05:18:59;12.10;99.90
39519;DHT22;25200;53.394;10.414;2024-02-15T05:21:25;12.10;99.90
39519;DHT22;25200;53.394;10.414;2024-02-15T05:23:51;12.10;99.90
39519;DHT22;25200;53.394;10.414;2024-02-15T05:26:18;12.10;99.90
39519;DHT22;25200;53.394;10.414;2024-02-15T05:28:49;12.10;99.90
39519;DHT22;25200;53.394;10.414;2024-02-15T05:31:18;12.10;99.90
39519;DHT22;25200;53.394;10.414;2024-02-15T05:33:46;12.10;99.90
39519;DHT22;25200;53.394;10.414;2024-02-15T05:36:17;12.10;99.90
39519;DHT22;25200;53.394;10.414;2024-02-15T05:38:52;12.10;99.90
39519;DHT22;25200;53.394;10.414;2024-02-15T05:41:18;12.10;99.90
39519;DHT22;25200;53.394;10.414;2024-02-15T05:43:46;12.10;99.90
39519;DHT22;25200;53.394;10.414;2024-02-15T05:46:14;12.10;99.90
39519;DHT22;25200;53.394;10.414;2024-02-15T05:48:40;12.10;99.90
39519;DHT22;25200;53.394;10.414;2024-02-15T05:51:07;12.10;99.90
39519;DHT22;25200;53.394;10.414;2024-02-15T05:53:34;12.10;99.90
39519;DHT22;25200;53.394;10.414;2024-02-15T05:56:06;12.10;99.90
39519;DHT22;25200;53.394;10.414;2024-02-15T05:58:42;12.10;99.90
39519;DHT22;25200;53.394;10.414;2024-02-15T06:01:07;12.10;99.90
39519;DHT22;25200;53.394;10.414;2024-02-15T06:03:38;12.20;99.90
39519;DHT22;25200;53.394;10.414;2024-02-15T06:06:06;12.10;99.90
39519;DHT22;25200;53.394;10.414;2024-02-15T06:08:35;12.20;99.90
39519;DHT22;25200;53.394;10.414;2024-02-15T06:11:01;12.10;99.90
39519;DHT22;25200;53.394;10.414;2024-02-15T06:13:28;12.20;99.90
39519;DHT22;25200;53.394;10.414;2024-02-15T06:15:54;12.20;99.90
39519;DHT22;25200;53.394;10.414;2024-02-15T06:18:20;12.10;99.90
39519;DHT22;25200;53.394;10.414;2024-02-15T06:20:50;12.10;99.90
39519;DHT22;25200;53.394;10.414;2024-02-15T06:23:17;12.20;99.90
39519;DHT22;25200;53.394;10.414;2024-02-15T06:25:43;12.10;99.90
39519;DHT22;25200;53.394;10.414;2024-02-15T06:28:09;12.10;99.90
39519;DHT22;25200;53.394;10.414;2024-02-15T06:30:53;12.20;99.90
39519;DHT22;25200;53.394;10.414;2024-02-15T06:33:37;12.20;99.90
39519;DHT22;25200;53.394;10.414;2024-02-15T06:36:21;12.20;99.90
39519;DHT22;25200;53.394;10.414;2024-02-15T06:39:05;12.20;99.90
39519;DHT22;25200;53.394;10.414;2024-02-15T06:41:49;12.20;99.90
39519;DHT22;25200;53.394;10.414;2024-02-15T06:44:15;12.20;99.90
39519;DHT22;25200;53.394;10.414;2024-02-15T06:46:41;12.20;99.90
39519;DHT22;25200;53.394;10.414;2024-02-15T06:49:06;12.20;99.90
39519;DHT22;25200;53.394;10.414;2024-02-15T06:51:32;12.20;99.90
39519;DHT22;25200;53.394;10.414;2024-02-15T06:53:57;12.20;99.90
39519;DHT22;25200;53.394;10.414;2024-02-15T06:56:23;12.20;99.90
39519;DHT22;25200;53.394;10.414;2024-02-15T06:58:50;12.20;99.90
39519;DHT22;25200;53.394;10.414;2024-02-15T07:01:15;12.20;99.90
39519;DHT22;25200;53.394;10.414;2024-02-15T07:03:42;12.20;99.90
39519;DHT22;25200;53.394;10.414;2024-02-15T07:06:10;12.20;99.90
39519;DHT22;25200;53.394;10.414;2024-02-15T07:08:35;12.20;99.90
39519;DHT22;25200;53.394;10.414;2024-02-15T07:11:01;12.20;99.90
39519;DHT22;25200;53.394;10.414;2024-02-15T07:13:29;12.20;99.90
39519;DHT22;25200;53.394;10.414;2024-02-15T07:15:54;12.20;99.90
39519;DHT22;25200;53.394;10.414;2024-02-15T07:18:20;12.20;99.90
39519;DHT22;25200;53.394;10.414;2024-02-15T07:20:47;12.20;99.90
39519;DHT22;25200;53.394;10.414;2024-02-15T07:23:13;12.20;99.90
39519;DHT22;25200;53.394;10.414;2024-02-15T07:25:40;12.20;99.90
39519;DHT22;25200;53.394;10.414;2024-02-15T07:28:06;12.20;99.90
39519;DHT22;25200;53.394;10.414;2024-02-15T07:30:33;12.20;99.90
39519;DHT22;25200;53.394;10.414;2024-02-15T07:32:59;12.20;99.90
39519;DHT22;25200;53.394;10.414;2024-02-15T07:35:25;12.20;99.90
39519;DHT22;25200;53.394;10.414;2024-02-15T07:37:54;12.30;99.90
39519;DHT22;25200;53.394;10.414;2024-02-15T07:40:26;12.30;99.90
39519;DHT22;25200;53.394;10.414;2024-02-15T07:42:56;12.30;99.90
39519;DHT22;25200;53.394;10.414;2024-02-15T07:45:22;12.30;99.90
39519;DHT22;25200;53.394;10.414;2024-02-15T07:47:47;12.30;99.90
39519;DHT22;25200;53.394;10.414;2024-02-15T07:50:17;12.30;99.90
39519;DHT22;25200;53.394;10.414;2024-02-15T07:52:49;12.30;99.90
39519;DHT22;25200;53.394;10.414;2024-02-15T07:55:15;12.30;99.90
39519;DHT22;25200;53.394;10.414;2024-02-15T07:57:40;12.30;99.90
39519;DHT22;25200;53.394;10.414;2024-02-15T08:00:07;12.40;99.90
39519;DHT22;25200;53.394;10.414;2024-02-15T08:02:39;12.40;99.90
39519;DHT22;25200;53.394;10.414;2024-02-15T08:05:07;12.40;99.90
39519;DHT22;25200;53.394;10.414;2024-02-15T08:07:37;12.40;99.90
39519;DHT22;25200;53.394;10.414;2024-02-15T08:10:02;12.40;99.90
39519;DHT22;25200;53.394;10.414;2024-02-15T08:12:29;12.50;99.90
39519;DHT22;25200;53.394;10.414;2024-02-15T08:14:55;12.40;99.90
39519;DHT22;25200;53.394;10.414;2024-02-15T08:17:21;12.50;99.90
39519;DHT22;25200;53.394;10.414;2024-02-15T08:19:46;12.50;99.90
39519;DHT22;25200;53.394;10.414;2024-02-15T08:22:12;12.50;99.90
39519;DHT22;25200;53.394;10.414;2024-02-15T08:24:37;12.50;99.90
39519;DHT22;25200;53.394;10.414;2024-02-15T08:27:03;12.50;99.90
39519;DHT22;25200;53.394;10.414;2024-02-15T08:29:30;12.50;99.90
39519;DHT22;25200;53.394;10.414;2024-02-15T08:31:55;12.50;99.90
39519;DHT22;25200;53.394;10.414;2024-02-15T08:34:21;12.60;99.90
39519;DHT22;25200;53.394;10.414;2024-02-15T08:36:46;12.60;99.90
39519;DHT22;25200;53.394;10.414;2024-02-15T08:39:14;12.60;99.90
39519;DHT22;25200;53.394;10.414;2024-02-15T08:41:41;12.60;99.90
39519;DHT22;25200;53.394;10.414;2024-02-15T08:44:07;12.60;99.90
39519;DHT22;25200;53.394;10.414;2024-02-15T08:46:37;12.60;99.90
39519;DHT22;25200;53.394;10.414;2024-02-15T08:49:03;12.60;99.90
39519;DHT22;25200;53.394;10.414;2024-02-15T08:51:29;12.70;99.90
39519;DHT22;25200;53.394;10.414;2024-02-15T08:53:58;12.70;99.90
39519;DHT22;25200;53.394;10.414;2024-02-15T08:56:25;12.70;99.90
39519;DHT22;25200;53.394;10.414;2024-02-15T08:58:51;12.70;99.90
39519;DHT22;25200;53.394;10.414;2024-02-15T09:01:16;12.80;99.90
39519;DHT22;25200;53.394;10.414;2024-02-15T09:03:42;12.80;99.90
39519;DHT22;25200;53.394;10.414;2024-02-15T09:06:08;12.90;99.90
39519;DHT22;25200;53.394;10.414;2024-02-15T09:08:34;12.90;99.90
39519;DHT22;25200;53.394;10.414;2024-02-15T09:10:59;13.00;99.90
39519;DHT22;25200;53.394;10.414;2024-02-15T09:13:25;13.00;99.90
39519;DHT22;25200;53.394;10.414;2024-02-15T09:15:50;13.10;99.90
39519;DHT22;25200;53.394;10.414;2024-02-15T09:18:16;13.20;99.90
39519;DHT22;25200;53.394;10.414;2024-02-15T09:20:48;13.20;99.90
39519;DHT22;25200;53.394;10.414;2024-02-15T09:23:14;13.20;99.90
39519;DHT22;25200;53.394;10.414;2024-02-15T09:25:43;13.30;99.90
39519;DHT22;25200;53.394;10.414;2024-02-15T09:28:09;13.30;99.90
39519;DHT22;25200;53.394;10.414;2024-02-15T09:30:35;13.30;99.90
39519;DHT22;25200;53.394;10.414;2024-02-15T09:33:01;13.30;99.90
39519;DHT22;25200;53.394;10.414;2024-02-15T09:35:31;13.30;99.90
39519;DHT22;25200;53.394;10.414;2024-02-15T09:37:57;13.40;99.90
39519;DHT22;25200;53.394;10.414;2024-02-15T09:40:23;13.40;99.90
39519;DHT22;25200;53.394;10.414;2024-02-15T09:42:54;13.50;99.90
39519;DHT22;25200;53.394;10.414;2024-02-15T09:45:20;13.50;99.90
39519;DHT22;25200;53.394;10.414;2024-02-15T09:47:46;13.50;99.90
39519;DHT22;25200;53.394;10.414;2024-02-15T09:50:16;13.60;99.90
39519;DHT22;25200;53.394;10.414;2024-02-15T09:52:49;13.60;99.90
39519;DHT22;25200;53.394;10.414;2024-02-15T09:55:14;13.60;99.90
39519;DHT22;25200;53.394;10.414;2024-02-15T09:57:46;13.60;99.90
39519;DHT22;25200;53.394;10.414;2024-02-15T10:00:13;13.60;99.90
39519;DHT22;25200;53.394;10.414;2024-02-15T10:02:44;13.60;99.90
39519;DHT22;25200;53.394;10.414;2024-02-15T10:05:12;13.50;99.90
39519;DHT22;25200;53.394;10.414;2024-02-15T10:07:42;13.50;99.90
39519;DHT22;25200;53.394;10.414;2024-02-15T10:10:23;13.40;99.90
39519;DHT22;25200;53.394;10.414;2024-02-15T10:12:50;13.50;99.90
39519;DHT22;25200;53.394;10.414;2024-02-15T10:15:28;13.40;99.90
39519;DHT22;25200;53.394;10.414;2024-02-15T10:17:58;13.40;99.90
39519;DHT22;25200;53.394;10.414;2024-02-15T10:20:24;13.40;99.90
39519;DHT22;25200;53.394;10.414;2024-02-15T10:22:52;13.40;99.90
39519;DHT22;25200;53.394;10.414;2024-02-15T10:25:20;13.30;99.90
39519;DHT22;25200;53.394;10.414;2024-02-15T10:27:46;13.30;99.90
39519;DHT22;25200;53.394;10.414;2024-02-15T10:30:15;13.30;99.90
39519;DHT22;25200;53.394;10.414;2024-02-15T10:32:42;13.30;99.90
39519;DHT22;25200;53.394;10.414;2024-02-15T10:35:08;13.30;99.90
39519;DHT22;25200;53.394;10.414;2024-02-15T10:37:33;13.30;99.90
39519;DHT22;25200;53.394;10.414;2024-02-15T10:40:05;13.30;99.90
39519;DHT22;25200;53.394;10.414;2024-02-15T10:42:33;13.30;99.90
39519;DHT22;25200;53.394;10.414;2024-02-15T10:45:03;13.30;99.90
39519;DHT22;25200;53.394;10.414;2024-02-15T10:47:30;13.30;99.90
39519;DHT22;25200;53.394;10.414;2024-02-15T10:49:57;13.30;99.90
39519;DHT22;25200;53.394;10.414;2024-02-15T10:52:25;13.40;99.90
39519;DHT22;25200;53.394;10.414;2024-02-15T10:55:05;13.40;99.90
39519;DHT22;25200;53.394;10.414;2024-02-15T10:57:37;13.40;99.90
39519;DHT22;25200;53.394;10.414;2024-02-15T11:00:06;13.40;99.90
39519;DHT22;25200;53.394;10.414;2024-02-15T11:02:44;13.40;99.90
39519;DHT22;25200;53.394;10.414;2024-02-15T11:05:11;13.40;99.90
39519;DHT22;25200;53.394;10.414;2024-02-15T11:07:40;13.40;99.90
39519;DHT22;25200;53.394;10.414;2024-02-15T11:10:07;13.40;99.90
39519;DHT22;25200;53.394;10.414;2024-02-15T11:12:36;13.50;99.90
39519;DHT22;25200;53.394;10.414;2024-02-15T11:15:03;13.50;99.90
39519;DHT22;25200;53.394;10.414;2024-02-15T11:20:32;13.50;99.90
39519;DHT22;25200;53.394;10.414;2024-02-15T11:22:58;13.60;99.90
39519;DHT22;25200;53.394;10.414;2024-02-15T11:25:34;13.60;99.90
39519;DHT22;25200;53.394;10.414;2024-02-15T11:30:48;13.60;99.90
39519;DHT22;25200;53.394;10.414;2024-02-15T11:33:33;13.70;99.90
39519;DHT22;25200;53.394;10.414;2024-02-15T11:36:12;13.70;99.90
39519;DHT22;25200;53.394;10.414;2024-02-15T11:38:41;13.70;99.90
39519;DHT22;25200;53.394;10.414;2024-02-15T11:41:09;13.70;99.90
39519;DHT22;25200;53.394;10.414;2024-02-15T11:46:17;13.80;99.90
39519;DHT22;25200;53.394;10.414;2024-02-15T11:48:49;13.80;99.90
39519;DHT22;25200;53.394;10.414;2024-02-15T11:51:30;13.80;99.90
39519;DHT22;25200;53.394;10.414;2024-02-15T11:54:04;13.70;99.90
39519;DHT22;25200;53.394;10.414;2024-02-15T11:59:08;13.70;99.90
39519;DHT22;25200;53.394;10.414;2024-02-15T12:01:38;13.70;99.90
39519;DHT22;25200;53.394;10.414;2024-02-15T12:04:22;13.70;99.90
39519;DHT22;25200;53.394;10.414;2024-02-15T12:07:06;13.70;99.90
39519;DHT22;25200;53.394;10.414;2024-02-15T12:09:57;13.70;99.90
39519;DHT22;25200;53.394;10.414;2024-02-15T12:12:53;13.70;99.90
39519;DHT22;25200;53.394;10.414;2024-02-15T12:15:37;13.60;99.90
39519;DHT22;25200;53.394;10.414;2024-02-15T12:18:21;13.60;99.90
39519;DHT22;25200;53.394;10.414;2024-02-15T12:21:19;13.60;99.90
39519;DHT22;25200;53.394;10.414;2024-02-15T12:23:48;13.60;99.90
39519;DHT22;25200;53.394;10.414;2024-02-15T12:26:21;13.60;99.90
39519;DHT22;25200;53.394;10.414;2024-02-15T12:28:52;13.60;99.90
39519;DHT22;25200;53.394;10.414;2024-02-15T12:31:22;13.60;99.90
39519;DHT22;25200;53.394;10.414;2024-02-15T12:34:00;13.60;99.90
39519;DHT22;25200;53.394;10.414;2024-02-15T12:36:26;13.60;99.90
39519;DHT22;25200;53.394;10.414;2024-02-15T12:39:03;13.60;99.90
39519;DHT22;25200;53.394;10.414;2024-02-15T12:41:37;13.60;99.90
39519;DHT22;25200;53.394;10.414;2024-02-15T12:44:06;13.60;99.90
39519;DHT22;25200;53.394;10.414;2024-02-15T12:46:34;13.60;99.90
39519;DHT22;25200;53.394;10.414;2024-02-15T12:51:51;13.60;99.90
39519;DHT22;25200;53.394;10.414;2024-02-15T12:54:20;13.60;99.90
39519;DHT22;25200;53.394;10.414;2024-02-15T12:56:47;13.60;99.90
39519;DHT22;25200;53.394;10.414;2024-02-15T12:59:21;13.60;99.90
39519;DHT22;25200;53.394;10.414;2024-02-15T13:01:49;13.60;99.90
39519;DHT22;25200;53.394;10.414;2024-02-15T13:04:25;13.60;99.90
39519;DHT22;25200;53.394;10.414;2024-02-15T13:06:50;13.50;99.90
39519;DHT22;25200;53.394;10.414;2024-02-15T13:09:16;13.60;99.90
39519;DHT22;25200;53.394;10.414;2024-02-15T13:11:42;13.50;99.90
39519;DHT22;25200;53.394;10.414;2024-02-15T13:14:11;13.60;99.90
39519;DHT22;25200;53.394;10.414;2024-02-15T13:16:36;13.60;99.90
39519;DHT22;25200;53.394;10.414;2024-02-15T13:19:02;13.60;99.90
39519;DHT22;25200;53.394;10.414;2024-02-15T13:21:28;13.60;99.90
39519;DHT22;25200;53.394;10.414;2024-02-15T13:23:56;13.60;99.90
39519;DHT22;25200;53.394;10.414;2024-02-15T13:26:21;13.60;99.90
39519;DHT22;25200;53.394;10.414;2024-02-15T13:28:51;13.60;99.90
39519;DHT22;25200;53.394;10.414;2024-02-15T13:31:17;13.60;99.90
39519;DHT22;25200;53.394;10.414;2024-02-15T13:33:43;13.60;99.90
39519;DHT22;25200;53.394;10.414;2024-02-15T13:36:08;13.60;99.90
39519;DHT22;25200;53.394;10.414;2024-02-15T13:38:39;13.60;99.90
39519;DHT22;25200;53.394;10.414;2024-02-15T13:41:04;13.60;99.90
39519;DHT22;25200;53.394;10.414;2024-02-15T13:43:30;13.60;99.90
39519;DHT22;25200;53.394;10.414;2024-02-15T13:45:57;13.60;99.90
39519;DHT22;25200;53.394;10.414;2024-02-15T13:48:23;13.60;99.90
39519;DHT22;25200;53.394;10.414;2024-02-15T13:50:53;13.60;99.90
39519;DHT22;25200;53.394;10.414;2024-02-15T13:53:18;13.60;99.90
39519;DHT22;25200;53.394;10.414;2024-02-15T13:55:44;13.60;99.90
39519;DHT22;25200;53.394;10.414;2024-02-15T13:58:10;13.60;99.90
39519;DHT22;25200;53.394;10.414;2024-02-15T14:00:37;13.60;99.90
39519;DHT22;25200;53.394;10.414;2024-02-15T14:03:07;13.60;99.90
39519;DHT22;25200;53.394;10.414;2024-02-15T14:05:35;13.60;99.90
39519;DHT22;25200;53.394;10.414;2024-02-15T14:08:05;13.60;99.90
39519;DHT22;25200;53.394;10.414;2024-02-15T14:10:32;13.60;99.90
39519;DHT22;25200;53.394;10.414;2024-02-15T14:13:00;13.60;99.90
39519;DHT22;25200;53.394;10.414;2024-02-15T14:15:29;13.60;99.90
39519;DHT22;25200;53.394;10.414;2024-02-15T14:17:55;13.60;99.90
39519;DHT22;25200;53.394;10.414;2024-02-15T14:20:24;13.60;99.90
39519;DHT22;25200;53.394;10.414;2024-02-15T14:22:50;13.60;99.90
39519;DHT22;25200;53.394;10.414;2024-02-15T14:25:25;13.60;99.90
39519;DHT22;25200;53.394;10.414;2024-02-15T14:27:54;13.60;99.90
39519;DHT22;25200;53.394;10.414;2024-02-15T14:30:20;13.60;99.90
39519;DHT22;25200;53.394;10.414;2024-02-15T14:33:04;13.60;99.90
39519;DHT22;25200;53.394;10.414;2024-02-15T14:35:34;13.60;99.90
39519;DHT22;25200;53.394;10.414;2024-02-15T14:38:05;13.60;99.90
39519;DHT22;25200;53.394;10.414;2024-02-15T14:40:45;13.60;99.90
39519;DHT22;25200;53.394;10.414;2024-02-15T14:43:21;13.60;99.90
39519;DHT22;25200;53.394;10.414;2024-02-15T14:45:47;13.60;99.90
39519;DHT22;25200;53.394;10.414;2024-02-15T14:48:14;13.60;99.90
39519;DHT22;25200;53.394;10.414;2024-02-15T14:50:43;13.60;99.90
39519;DHT22;25200;53.394;10.414;2024-02-15T14:53:09;13.60;99.90
39519;DHT22;25200;53.394;10.414;2024-02-15T14:55:36;13.50;99.90
39519;DHT22;25200;53.394;10.414;2024-02-15T14:58:06;13.50;99.90
39519;DHT22;25200;53.394;10.414;2024-02-15T15:00:33;13.50;99.90
39519;DHT22;25200;53.394;10.414;2024-02-15T15:02:59;13.50;99.90
39519;DHT22;25200;53.394;10.414;2024-02-15T15:05:25;13.50;99.90
39519;DHT22;25200;53.394;10.414;2024-02-15T15:08:09;13.50;99.90
39519;DHT22;25200;53.394;10.414;2024-02-15T15:10:54;13.50;99.90
39519;DHT22;25200;53.394;10.414;2024-02-15T15:13:38;13.50;99.90
39519;DHT22;25200;53.394;10.414;2024-02-15T15:16:05;13.40;99.90
39519;DHT22;25200;53.394;10.414;2024-02-15T15:18:32;13.50;99.90
39519;DHT22;25200;53.394;10.414;2024-02-15T15:21:01;13.40;99.90
39519;DHT22;25200;53.394;10.414;2024-02-15T15:23:27;13.40;99.90
39519;DHT22;25200;53.394;10.414;2024-02-15T15:25:57;13.40;99.90
39519;DHT22;25200;53.394;10.414;2024-02-15T15:28:23;13.40;99.90
39519;DHT22;25200;53.394;10.414;2024-02-15T15:30:49;13.40;99.90
39519;DHT22;25200;53.394;10.414;2024-02-15T15:33:16;13.40;99.90
39519;DHT22;25200;53.394;10.414;2024-02-15T15:35:45;13.30;99.90